createdAt,value
2018-09-12T00:01:15.662Z,18.50
2018-09-12T00:06:07.319Z,18.40
2018-09-12T00:10:58.271Z,18.40
2018-09-12T00:15:49.182Z,18.40
2018-09-12T00:20:40.852Z,18.30
2018-09-12T00:25:32.527Z,18.30
2018-09-12T00:30:23.512Z,18.30
2018-09-12T00:35:15.175Z,18.20
2018-09-12T00:40:06.099Z,18.10
2018-09-12T00:44:57.105Z,18.10
2018-09-12T00:49:48.019Z,18.10
2018-09-12T00:54:38.918Z,18.00
2018-09-12T00:59:29.853Z,18.00
2018-09-12T01:04:20.751Z,18.00
2018-09-12T01:09:11.680Z,17.90
2018-09-12T01:14:02.581Z,17.90
2018-09-12T01:18:53.498Z,17.80
2018-09-12T01:23:45.218Z,17.70
2018-09-12T01:28:36.205Z,17.70
2018-09-12T01:33:27.166Z,17.70
2018-09-12T01:38:18.134Z,17.60
2018-09-12T01:43:09.106Z,17.60
2018-09-12T01:48:00.023Z,17.60
2018-09-12T01:52:50.923Z,17.50
2018-09-12T01:57:41.904Z,17.50
2018-09-12T02:02:32.883Z,17.40
2018-09-12T02:07:23.802Z,17.40
2018-09-12T02:12:15.472Z,17.30
2018-09-12T02:17:06.422Z,17.30
2018-09-12T02:21:57.390Z,17.30
2018-09-12T02:26:48.307Z,17.30
2018-09-12T02:31:39.310Z,17.20
2018-09-12T02:36:30.239Z,17.20
2018-09-12T02:41:21.228Z,17.20
2018-09-12T02:46:12.133Z,17.10
2018-09-12T02:51:03.035Z,17.10
2018-09-12T02:55:54.763Z,17.10
2018-09-12T03:00:45.720Z,17.00
2018-09-12T03:05:36.631Z,17.00
2018-09-12T03:10:27.580Z,17.00
2018-09-12T03:15:18.521Z,17.00
2018-09-12T03:20:09.431Z,16.90
2018-09-12T03:25:00.349Z,16.90
2018-09-12T03:29:51.295Z,16.80
2018-09-12T03:34:43.008Z,16.80
2018-09-12T03:39:33.987Z,16.70
2018-09-12T03:44:24.911Z,16.70
2018-09-12T03:49:16.594Z,16.60
2018-09-12T03:54:08.321Z,16.60
2018-09-12T03:58:59.273Z,16.60
2018-09-12T04:03:50.199Z,16.60
2018-09-12T04:08:41.221Z,16.50
2018-09-12T04:13:32.198Z,16.50
2018-09-12T04:18:23.091Z,16.50
2018-09-12T04:23:14.027Z,16.40
2018-09-12T04:28:04.993Z,16.40
2018-09-12T04:32:55.973Z,16.40
2018-09-12T04:37:46.888Z,16.40
2018-09-12T04:42:38.606Z,16.30
2018-09-12T04:47:29.547Z,16.30
2018-09-12T04:52:21.225Z,16.20
2018-09-12T04:57:12.954Z,16.20
2018-09-12T05:02:03.902Z,16.20
2018-09-12T05:06:54.882Z,16.20
2018-09-12T05:11:45.855Z,16.10
2018-09-12T05:16:36.807Z,16.20
2018-09-12T05:21:27.718Z,16.20
2018-09-12T05:26:18.668Z,16.20
2018-09-12T05:31:09.579Z,16.30
2018-09-12T05:36:00.492Z,16.30
2018-09-12T05:40:51.390Z,16.40
2018-09-12T05:45:42.319Z,16.50
2018-09-12T05:50:33.238Z,16.60
2018-09-12T05:55:24.145Z,16.60
2018-09-12T06:00:15.155Z,16.70
2018-09-12T06:05:06.050Z,16.80
2018-09-12T06:09:57.094Z,16.90
2018-09-12T06:14:48.014Z,17.00
2018-09-12T06:19:39.723Z,17.30
2018-09-12T06:24:30.642Z,17.30
2018-09-12T06:29:21.578Z,17.40
2018-09-12T06:34:12.535Z,17.60
2018-09-12T06:39:03.454Z,17.80
2018-09-12T06:43:55.096Z,18.10
2018-09-12T06:48:46.031Z,18.10
2018-09-12T06:53:36.935Z,18.30
2018-09-12T06:58:27.841Z,18.50
2018-09-12T07:03:19.593Z,18.90
2018-09-12T07:08:10.523Z,18.80
2018-09-12T07:13:01.514Z,19.10
2018-09-12T07:17:52.457Z,19.20
2018-09-12T07:22:43.425Z,19.40
2018-09-12T07:27:34.418Z,19.60
2018-09-12T07:32:25.370Z,19.70
2018-09-12T07:37:16.310Z,19.80
2018-09-12T07:42:08.047Z,20.10
2018-09-12T07:46:58.978Z,20.10
2018-09-12T07:51:50.684Z,20.40
2018-09-12T07:56:41.696Z,20.40
2018-09-12T08:01:32.613Z,20.50
2018-09-12T08:06:23.533Z,20.60
2018-09-12T08:11:14.464Z,20.80
2018-09-12T08:16:05.449Z,21.00
2018-09-12T08:20:56.370Z,21.10
2018-09-12T08:25:47.356Z,21.30
2018-09-12T08:30:38.270Z,21.50
2018-09-12T08:35:29.280Z,21.70
2018-09-12T08:40:20.219Z,21.70
2018-09-12T08:45:11.136Z,21.80
2018-09-12T08:50:02.132Z,22.00
2018-09-12T08:54:53.099Z,22.20
2018-09-12T08:59:44.044Z,22.30
2018-09-12T09:04:35.018Z,22.50
2018-09-12T09:09:25.921Z,22.70
2018-09-12T09:14:16.870Z,22.80
2018-09-12T09:19:07.817Z,23.00
2018-09-12T09:23:58.726Z,23.20
2018-09-12T09:28:49.719Z,23.30
2018-09-12T09:33:40.624Z,23.40
2018-09-12T09:38:31.531Z,23.60
2018-09-12T09:43:23.249Z,23.90
2018-09-12T09:48:14.237Z,23.90
2018-09-12T09:53:05.099Z,24.00
2018-09-12T09:57:56.008Z,24.20
2018-09-12T10:02:46.939Z,24.40
2018-09-12T10:07:37.848Z,24.50
2018-09-12T10:12:29.723Z,24.80
2018-09-12T10:17:20.783Z,24.80
2018-09-12T10:22:11.707Z,24.90
2018-09-12T10:27:02.613Z,25.10
2018-09-12T10:31:53.539Z,25.30
2018-09-12T10:36:44.447Z,25.40
2018-09-12T10:41:35.347Z,25.60
2018-09-12T10:46:27.001Z,25.80
2018-09-12T10:51:17.922Z,25.80
2018-09-12T10:56:08.827Z,26.00
2018-09-12T11:00:59.751Z,26.10
2018-09-12T11:05:52.897Z,26.60
2018-09-12T11:10:43.871Z,26.60
2018-09-12T11:15:34.806Z,26.90
2018-09-12T11:20:26.460Z,27.20
2018-09-12T11:25:17.361Z,27.20
2018-09-12T11:30:09.009Z,28.00
2018-09-12T11:34:59.903Z,28.00
2018-09-12T11:39:51.557Z,29.10
2018-09-12T11:44:42.460Z,29.10
2018-09-12T11:49:33.400Z,29.40
2018-09-12T11:54:24.314Z,29.50
2018-09-12T11:59:15.233Z,29.50
2018-09-12T12:04:06.171Z,29.70
2018-09-12T12:08:57.087Z,29.90
2018-09-12T12:13:48.781Z,29.90
2018-09-12T12:18:40.481Z,29.80
2018-09-12T12:23:31.461Z,29.70
2018-09-12T12:28:22.393Z,29.70
2018-09-12T12:33:14.053Z,29.70
2018-09-12T12:38:04.982Z,29.70
2018-09-12T12:42:55.883Z,29.80
2018-09-12T12:47:46.892Z,30.00
2018-09-12T12:52:38.614Z,30.20
2018-09-12T12:57:29.536Z,30.20
2018-09-12T13:02:21.936Z,30.10
2018-09-12T13:07:12.882Z,30.10
2018-09-12T13:12:03.832Z,30.10
2018-09-12T13:16:54.737Z,30.00
2018-09-12T13:21:45.902Z,29.90
2018-09-12T13:26:36.669Z,29.80
2018-09-12T13:31:27.613Z,29.60
2018-09-12T13:36:18.649Z,29.50
2018-09-12T13:41:09.597Z,29.30
2018-09-12T13:46:00.551Z,29.20
2018-09-12T13:50:51.454Z,29.10
2018-09-12T13:55:42.404Z,29.00
2018-09-12T14:00:33.366Z,28.90
2018-09-12T14:05:24.335Z,28.80
2018-09-12T14:10:16.038Z,28.70
2018-09-12T14:15:07.016Z,28.70
2018-09-12T14:19:58.991Z,28.60
2018-09-12T14:24:51.247Z,28.50
2018-09-12T14:29:42.912Z,28.50
2018-09-12T14:34:33.826Z,28.40
2018-09-12T14:39:24.866Z,28.20
2018-09-12T14:44:15.753Z,28.10
2018-09-12T14:49:06.730Z,28.00
2018-09-12T14:53:58.387Z,27.80
2018-09-12T14:58:52.310Z,27.70
2018-09-12T15:03:43.286Z,27.70
2018-09-12T15:08:34.198Z,27.60
2018-09-12T15:13:25.178Z,27.50
2018-09-12T15:18:16.897Z,27.20
2018-09-12T15:23:07.834Z,27.10
2018-09-12T15:27:59.505Z,26.90
2018-09-12T15:32:52.257Z,26.80
2018-09-12T15:37:43.165Z,26.70
2018-09-12T15:42:34.926Z,26.50
2018-09-12T15:47:25.855Z,26.50
2018-09-12T15:52:16.874Z,26.30
2018-09-12T15:57:07.937Z,26.20
2018-09-12T16:01:58.839Z,26.00
2018-09-12T16:06:49.742Z,25.80
2018-09-12T16:11:40.671Z,25.70
2018-09-12T16:16:31.643Z,25.50
2018-09-12T16:21:23.343Z,25.10
2018-09-12T16:26:14.987Z,24.90
2018-09-12T16:31:05.899Z,24.90
2018-09-12T16:35:57.558Z,24.50
2018-09-12T16:40:48.480Z,24.50
2018-09-12T16:45:39.385Z,24.30
2018-09-12T16:50:30.329Z,24.10
2018-09-12T16:55:21.242Z,23.90
2018-09-12T17:00:12.891Z,23.50
2018-09-12T17:05:03.826Z,23.50
2018-09-12T17:09:54.740Z,23.30
2018-09-12T17:14:45.658Z,23.20
2018-09-12T17:19:36.585Z,22.90
2018-09-12T17:24:27.504Z,22.80
2018-09-12T17:29:18.444Z,22.60
2018-09-12T17:34:09.383Z,22.40
2018-09-12T17:39:00.330Z,22.30
2018-09-12T17:43:51.249Z,22.10
2018-09-12T17:48:42.191Z,22.00
2018-09-12T17:53:33.099Z,21.80
2018-09-12T17:58:24.016Z,21.70
2018-09-12T18:03:14.926Z,21.60
2018-09-12T18:08:05.847Z,21.50
2018-09-12T18:12:57.516Z,21.20
2018-09-12T18:17:48.420Z,21.20
2018-09-12T18:22:39.349Z,21.10
2018-09-12T18:27:30.276Z,20.90
2018-09-12T18:32:21.281Z,20.90
2018-09-12T18:37:12.219Z,20.70
2018-09-12T18:42:03.871Z,20.50
2018-09-12T18:46:54.798Z,20.50
2018-09-12T18:51:45.704Z,20.40
2018-09-12T18:56:36.624Z,20.30
2018-09-12T19:01:27.608Z,20.20
2018-09-12T19:06:18.602Z,20.00
2018-09-12T19:11:09.658Z,19.90
2018-09-12T19:16:00.615Z,19.90
2018-09-12T19:20:51.563Z,19.70
2018-09-12T19:25:43.225Z,19.50
2018-09-12T19:30:34.168Z,19.50
2018-09-12T19:35:25.105Z,19.40
2018-09-12T19:40:16.077Z,19.40
2018-09-12T19:45:07.086Z,19.30
2018-09-12T19:49:57.998Z,19.20
2018-09-12T19:54:48.927Z,19.20
2018-09-12T19:59:39.846Z,19.10
2018-09-12T20:04:30.793Z,19.00
2018-09-12T20:09:21.801Z,19.00
2018-09-12T20:14:12.805Z,18.90
2018-09-12T20:19:04.462Z,18.80
2018-09-12T20:23:55.597Z,18.80
2018-09-12T20:28:46.354Z,18.80
2018-09-12T20:33:38.043Z,18.60
2018-09-12T20:38:28.993Z,18.60
2018-09-12T20:43:20.732Z,18.50
2018-09-12T20:48:11.713Z,18.50
2018-09-12T20:53:02.876Z,18.50
2018-09-12T20:57:53.821Z,18.40
2018-09-12T21:02:44.731Z,18.30
2018-09-12T21:07:35.633Z,18.20
2018-09-12T21:12:26.552Z,18.20
2018-09-12T21:17:17.526Z,18.10
2018-09-12T21:22:08.446Z,18.10
2018-09-12T21:26:59.370Z,18.00
2018-09-12T21:31:50.391Z,17.90
2018-09-12T21:36:42.083Z,17.80
2018-09-12T21:41:33.074Z,17.80
2018-09-12T21:46:23.981Z,17.80
2018-09-12T21:51:14.905Z,17.70
2018-09-12T21:56:05.803Z,17.70
2018-09-12T22:00:56.716Z,17.60
2018-09-12T22:05:48.375Z,17.60
2018-09-12T22:10:39.300Z,17.60
2018-09-12T22:15:30.230Z,17.50
2018-09-12T22:20:21.163Z,17.50
2018-09-12T22:25:12.108Z,17.50
2018-09-12T22:30:03.806Z,17.50
2018-09-12T22:34:54.765Z,17.50
2018-09-12T22:39:45.687Z,17.50
2018-09-12T22:44:36.596Z,17.40
2018-09-12T22:49:28.297Z,17.40
2018-09-12T22:54:19.215Z,17.40
2018-09-12T23:47:26.814Z,17.10
2018-09-12T23:52:17.758Z,17.00
2018-09-12T23:57:10.501Z,17.00
